Pagrindinis puslapis
METAR-TAF:

METAR-TAF

Oro uostai :

Dakaras, Senegalas

platuma: 14-44N, ilguma: 017-30W, Aukštis: 27 m

Dabartinis oras

Ataskaita buvo paskelbta 29 minutes, ne 12:00 UTC
Vėjas 12 kt iš Šiaurės Vakarų
Temperatūra 27°C
Drėgmė 70%
Slėgis 1014 hPa
Matomumas 10 km arba daugiau
Mažai debesys ne aukštis 1100 ft

METAR: GOOY 041200Z 32012KT 9999 FEW011 27/21 Q1014

Laikas: 12:29 (12:29 UTC)

Prognozė

Ataskaita buvo paskelbta 59 minutes, ne 11:30 UTC
Prognozė galioja nuo 04 metu 12 UTC su 05 metu 18 UTC
Vėjas 10 kt iš Šiaurės
Matomumas 10 km arba daugiau
Išsisklaidę debesys ne aukštis 1000 ft

TAF: GOOY 041130Z 0412/0518 35010KT 9999 SCT010

Orai ataskaitas ir orų prognozės (METAR, TAF).

turimą stotys yra geltonos ir raudonos taškus žemėlapyje.

Perkelti pele per norėdami pamatyti stoties vardą.

Tada spustelėkite, norėdami matyti oro stebėjimo ir prognozės.

Norėdami pakeisti žemėlapį: spustelėkite ant žalios mygtukų su juodo kryžiaus žemyn,; žalią mygtuką su brūkšneliu, jei norite nutolinti; arba žalių rodyklių gretimoms žemėlapius.


METAR-TAF: